createdAt,value
2023-01-29T00:01:20.200Z,19.85
2023-01-29T00:03:46.675Z,20.70
2023-01-29T00:06:13.131Z,24.40
2023-01-29T00:08:39.723Z,20.60
2023-01-29T00:11:08.305Z,23.58
2023-01-29T00:13:34.994Z,23.23
2023-01-29T00:16:02.233Z,22.83
2023-01-29T00:18:29.296Z,21.60
2023-01-29T00:20:55.824Z,21.77
2023-01-29T00:23:22.753Z,22.63
2023-01-29T00:25:49.480Z,22.50
2023-01-29T00:28:16.380Z,25.55
2023-01-29T00:30:42.782Z,21.05
2023-01-29T00:33:09.260Z,18.45
2023-01-29T00:35:36.027Z,21.88
2023-01-29T00:38:02.477Z,24.25
2023-01-29T00:40:28.848Z,22.63
2023-01-29T00:42:55.285Z,23.77
2023-01-29T00:45:21.981Z,18.45
2023-01-29T00:47:48.388Z,22.98
2023-01-29T00:50:15.184Z,21.48
2023-01-29T00:52:42.735Z,26.00
2023-01-29T00:55:10.771Z,22.27
2023-01-29T00:57:38.053Z,19.88
2023-01-29T01:00:08.052Z,21.35
2023-01-29T01:02:34.716Z,20.80
2023-01-29T01:05:01.203Z,23.65
2023-01-29T01:07:28.107Z,24.63
2023-01-29T01:09:54.575Z,25.42
2023-01-29T01:12:21.306Z,19.73
2023-01-29T01:14:48.370Z,20.40
2023-01-29T01:17:17.698Z,22.38
2023-01-29T01:19:44.544Z,20.73
2023-01-29T01:22:10.967Z,20.55
2023-01-29T01:24:37.979Z,21.20
2023-01-29T01:27:04.855Z,23.27
2023-01-29T01:29:31.391Z,24.02
2023-01-29T01:31:57.893Z,21.73
2023-01-29T01:34:24.341Z,22.48
2023-01-29T01:36:50.817Z,19.90
2023-01-29T01:39:17.237Z,24.02
2023-01-29T01:41:43.797Z,20.95
2023-01-29T01:44:48.095Z,23.02
2023-01-29T01:47:16.658Z,18.67
2023-01-29T01:49:45.076Z,20.42
2023-01-29T01:52:13.332Z,20.88
2023-01-29T01:54:39.951Z,19.50
2023-01-29T01:57:11.650Z,19.58
2023-01-29T01:59:40.277Z,22.35
2023-01-29T02:02:07.648Z,21.20
2023-01-29T02:04:34.741Z,22.20
2023-01-29T02:07:04.530Z,22.30
2023-01-29T02:09:46.211Z,20.70
2023-01-29T02:12:15.977Z,21.65
2023-01-29T02:14:43.945Z,25.05
2023-01-29T02:17:14.041Z,23.35
2023-01-29T02:20:08.466Z,18.23
2023-01-29T02:22:46.856Z,18.20
2023-01-29T02:25:16.252Z,23.38
2023-01-29T02:27:58.246Z,22.05
2023-01-29T02:30:36.219Z,21.02
2023-01-29T02:33:44.641Z,20.73
2023-01-29T02:36:29.683Z,20.55
2023-01-29T02:38:55.992Z,24.55
2023-01-29T02:41:42.523Z,20.90
2023-01-29T02:44:21.397Z,20.90
2023-01-29T02:46:56.232Z,21.17
2023-01-29T02:49:36.028Z,23.65
2023-01-29T02:52:12.569Z,24.85
2023-01-29T02:55:00.815Z,21.48
2023-01-29T02:57:32.886Z,23.95
2023-01-29T03:00:05.700Z,23.95
2023-01-29T03:02:45.545Z,21.80
2023-01-29T03:05:18.033Z,23.30
2023-01-29T03:07:54.592Z,23.65
2023-01-29T03:10:39.099Z,25.42
2023-01-29T03:13:19.872Z,25.20
2023-01-29T03:15:55.182Z,25.42
2023-01-29T03:18:25.082Z,23.42
2023-01-29T03:20:57.701Z,25.13
2023-01-29T03:23:31.956Z,23.73
2023-01-29T03:25:59.739Z,22.52
2023-01-29T03:28:28.253Z,26.23
2023-01-29T03:30:58.647Z,24.92
2023-01-29T03:33:31.766Z,28.13
2023-01-29T03:36:14.759Z,24.42
2023-01-29T03:38:41.350Z,23.80
2023-01-29T03:41:17.906Z,26.55
2023-01-29T03:43:54.963Z,24.50
2023-01-29T03:46:21.341Z,26.77
2023-01-29T03:49:15.334Z,24.92
2023-01-29T03:52:13.499Z,25.98
2023-01-29T03:55:17.542Z,27.88
2023-01-29T03:58:00.048Z,24.40
2023-01-29T04:00:45.035Z,23.80
2023-01-29T04:03:26.450Z,27.20
2023-01-29T04:06:11.483Z,22.02
2023-01-29T04:08:51.425Z,27.13
2023-01-29T04:11:22.171Z,28.27
2023-01-29T04:13:49.206Z,23.40
2023-01-29T04:16:27.204Z,26.15
2023-01-29T04:18:55.045Z,26.42
2023-01-29T04:21:21.959Z,24.27
2023-01-29T04:23:48.382Z,27.05
2023-01-29T04:26:29.067Z,29.80
2023-01-29T04:29:20.213Z,26.63
2023-01-29T04:32:00.736Z,27.17
2023-01-29T04:34:53.402Z,25.20
2023-01-29T04:37:33.161Z,24.42
2023-01-29T04:40:09.023Z,25.10
2023-01-29T04:43:02.161Z,26.40
2023-01-29T04:45:34.797Z,24.20
2023-01-29T04:48:20.355Z,25.40
2023-01-29T04:50:59.519Z,22.20
2023-01-29T04:53:37.410Z,27.38
2023-01-29T04:56:23.789Z,27.27
2023-01-29T04:58:57.154Z,30.05
2023-01-29T05:01:28.142Z,28.52
2023-01-29T05:06:24.097Z,24.67
2023-01-29T05:08:51.574Z,28.35
2023-01-29T05:11:19.867Z,25.77
2023-01-29T05:13:48.717Z,24.75
2023-01-29T05:16:21.946Z,23.95
2023-01-29T05:18:48.678Z,25.50
2023-01-29T05:21:15.498Z,21.52
2023-01-29T05:23:42.117Z,27.60
2023-01-29T05:26:08.511Z,28.10
2023-01-29T05:28:35.584Z,26.30
2023-01-29T05:31:02.164Z,25.30
2023-01-29T05:33:31.205Z,27.48
2023-01-29T05:35:59.464Z,28.58
2023-01-29T05:38:28.503Z,28.45
2023-01-29T05:40:55.089Z,26.83
2023-01-29T05:43:24.293Z,30.08
2023-01-29T05:45:58.844Z,26.65
2023-01-29T05:48:26.736Z,24.40
2023-01-29T05:50:53.121Z,27.63
2023-01-29T05:53:19.747Z,26.67
2023-01-29T05:55:47.785Z,27.25
2023-01-29T05:58:14.848Z,25.35
2023-01-29T06:00:41.976Z,26.95
2023-01-29T06:03:08.554Z,22.20
2023-01-29T06:05:38.542Z,23.48
2023-01-29T06:08:06.691Z,25.75
2023-01-29T06:10:36.142Z,27.05
2023-01-29T06:13:02.966Z,28.15
2023-01-29T06:15:29.394Z,24.75
2023-01-29T06:17:57.322Z,22.33
2023-01-29T06:20:24.882Z,23.45
2023-01-29T06:22:51.323Z,19.75
2023-01-29T06:25:17.998Z,24.90
2023-01-29T06:27:44.362Z,22.52
2023-01-29T06:30:11.389Z,20.20
2023-01-29T06:32:38.387Z,23.80
2023-01-29T06:35:05.402Z,22.83
2023-01-29T06:37:31.917Z,22.15
2023-01-29T06:39:58.560Z,25.88
2023-01-29T06:42:24.926Z,24.83
2023-01-29T06:44:51.452Z,21.20
2023-01-29T06:47:18.100Z,22.08
2023-01-29T06:49:44.505Z,16.20
2023-01-29T06:52:10.934Z,25.60
2023-01-29T06:54:37.239Z,23.58
2023-01-29T06:57:03.940Z,21.60
2023-01-29T06:59:30.492Z,20.25
2023-01-29T07:01:56.905Z,21.33
2023-01-29T07:04:23.376Z,17.83
2023-01-29T07:06:49.744Z,18.33
2023-01-29T07:09:16.389Z,17.73
2023-01-29T07:11:42.732Z,18.23
2023-01-29T07:14:09.472Z,23.48
2023-01-29T07:16:35.845Z,26.85
2023-01-29T07:19:02.324Z,23.38
2023-01-29T07:21:28.937Z,25.95
2023-01-29T07:23:55.791Z,25.92
2023-01-29T07:26:23.485Z,24.23
2023-01-29T07:28:50.157Z,24.77
2023-01-29T07:31:16.732Z,16.90
2023-01-29T07:33:44.142Z,22.73
2023-01-29T07:36:11.739Z,18.63
2023-01-29T07:38:38.315Z,17.13
2023-01-29T07:41:05.011Z,23.45
2023-01-29T07:43:31.607Z,26.35
2023-01-29T07:46:02.456Z,22.90
2023-01-29T07:50:57.101Z,23.60
2023-01-29T07:55:58.877Z,21.40
2023-01-29T08:01:06.194Z,23.30
2023-01-29T08:03:32.558Z,18.83
2023-01-29T08:05:58.937Z,22.98
2023-01-29T08:08:25.337Z,21.27
2023-01-29T08:10:51.889Z,26.58
2023-01-29T08:13:18.341Z,19.42
2023-01-29T08:15:47.538Z,18.65
2023-01-29T08:18:14.515Z,23.70
2023-01-29T08:20:41.020Z,22.80
2023-01-29T08:23:13.428Z,22.30
2023-01-29T08:25:41.847Z,20.60
2023-01-29T08:28:08.490Z,27.38
2023-01-29T08:30:35.760Z,17.83
2023-01-29T08:33:04.248Z,19.23
2023-01-29T08:35:31.330Z,22.77
2023-01-29T08:38:02.948Z,24.88
2023-01-29T08:40:34.384Z,18.75
2023-01-29T08:43:08.650Z,16.85
2023-01-29T08:45:39.274Z,24.50
2023-01-29T08:48:06.869Z,20.63
2023-01-29T08:50:35.069Z,23.38
2023-01-29T08:53:04.464Z,23.27
2023-01-29T09:00:46.352Z,21.85
2023-01-29T09:03:13.259Z,21.08
2023-01-29T09:08:21.696Z,22.17
2023-01-29T09:10:48.246Z,24.08
2023-01-29T09:13:14.673Z,20.95
2023-01-29T09:15:41.326Z,18.63
2023-01-29T09:20:58.193Z,23.50
2023-01-29T09:23:24.633Z,23.38
2023-01-29T09:25:51.476Z,22.13
2023-01-29T09:30:52.956Z,21.70
2023-01-29T09:33:19.391Z,22.23
2023-01-29T09:35:46.415Z,22.23
2023-01-29T09:38:13.496Z,22.38
2023-01-29T09:41:02.175Z,24.45
2023-01-29T09:46:25.438Z,17.25
2023-01-29T09:49:00.836Z,23.95
2023-01-29T09:51:35.261Z,18.85
2023-01-29T09:54:17.861Z,20.17
2023-01-29T09:56:45.817Z,22.60
2023-01-29T09:59:14.217Z,24.08
2023-01-29T10:01:58.579Z,19.90
2023-01-29T10:04:52.660Z,20.85
2023-01-29T10:07:48.326Z,23.90
2023-01-29T10:10:42.001Z,19.70
2023-01-29T10:13:40.528Z,19.95
2023-01-29T10:16:19.179Z,14.18
2023-01-29T10:19:14.716Z,19.98
2023-01-29T10:22:18.765Z,20.98
2023-01-29T10:24:53.944Z,23.88
2023-01-29T10:27:20.349Z,23.55
2023-01-29T10:29:51.337Z,24.80
2023-01-29T10:32:21.873Z,22.58
2023-01-29T10:34:56.823Z,20.55
2023-01-29T10:37:30.839Z,21.25
2023-01-29T10:40:00.475Z,20.38
2023-01-29T10:42:43.052Z,24.55
2023-01-29T10:45:26.334Z,23.15
2023-01-29T10:48:38.891Z,26.80
2023-01-29T10:51:24.901Z,25.60
2023-01-29T10:54:04.356Z,26.35
2023-01-29T11:02:16.145Z,25.40
2023-01-29T11:04:42.741Z,24.08
2023-01-29T11:07:12.673Z,24.10
2023-01-29T11:10:00.460Z,27.05
2023-01-29T11:12:31.392Z,27.40
2023-01-29T11:15:14.753Z,38.72
2023-01-29T11:18:01.381Z,30.98
2023-01-29T11:20:28.917Z,41.40
2023-01-29T11:22:55.604Z,23.25
2023-01-29T11:25:24.296Z,18.30
2023-01-29T11:27:57.406Z,28.48
2023-01-29T11:30:25.590Z,23.42
2023-01-29T11:33:06.854Z,24.40
2023-01-29T11:35:41.464Z,26.58
2023-01-29T11:38:18.576Z,27.83
2023-01-29T11:40:45.615Z,24.98
2023-01-29T11:43:26.455Z,25.73
2023-01-29T11:45:56.079Z,28.35
2023-01-29T11:48:32.091Z,28.63
2023-01-29T11:51:01.267Z,24.35
2023-01-29T11:53:38.557Z,26.40
2023-01-29T11:56:42.922Z,23.50
2023-01-29T11:59:36.556Z,24.98
2023-01-29T12:02:14.771Z,25.30
2023-01-29T12:04:41.357Z,28.77
2023-01-29T12:07:16.062Z,25.10
2023-01-29T12:09:58.064Z,29.13
2023-01-29T12:12:28.919Z,27.70
2023-01-29T12:15:16.709Z,27.17
2023-01-29T12:17:50.610Z,25.88
2023-01-29T12:20:26.830Z,35.13
2023-01-29T12:23:12.087Z,26.05
2023-01-29T12:26:10.359Z,24.98
2023-01-29T12:28:55.004Z,26.05
2023-01-29T12:31:37.851Z,27.42
2023-01-29T12:34:45.512Z,30.05
2023-01-29T12:37:20.986Z,24.95
2023-01-29T12:39:50.100Z,24.27
2023-01-29T12:42:24.227Z,27.90
2023-01-29T12:44:59.717Z,31.73
2023-01-29T12:47:28.788Z,25.80
2023-01-29T12:50:03.422Z,29.38
2023-01-29T12:52:42.236Z,27.15
2023-01-29T12:55:27.864Z,21.95
2023-01-29T12:57:59.999Z,26.92
2023-01-29T13:00:33.817Z,32.30
2023-01-29T13:03:27.586Z,28.73
2023-01-29T13:06:02.567Z,23.20
2023-01-29T13:08:47.502Z,28.67
2023-01-29T13:11:25.388Z,28.05
2023-01-29T13:14:26.355Z,28.88
2023-01-29T13:17:02.502Z,28.33
2023-01-29T13:19:35.014Z,27.85
2023-01-29T13:22:04.942Z,28.88
2023-01-29T13:24:40.543Z,31.23
2023-01-29T13:27:07.405Z,23.92
2023-01-29T13:29:34.093Z,30.27
2023-01-29T13:32:04.462Z,31.67
2023-01-29T13:34:33.692Z,29.27
2023-01-29T13:37:12.950Z,30.35
2023-01-29T13:39:46.295Z,27.65
2023-01-29T13:42:19.068Z,34.25
2023-01-29T13:44:51.637Z,31.08
2023-01-29T13:47:26.654Z,24.50
2023-01-29T13:50:07.404Z,27.92
2023-01-29T13:52:36.770Z,28.52
2023-01-29T13:55:15.559Z,29.25
2023-01-29T13:57:45.260Z,25.67
2023-01-29T14:00:20.723Z,27.65
2023-01-29T14:03:07.013Z,26.23
2023-01-29T14:05:39.541Z,31.90
2023-01-29T14:08:09.393Z,29.35
2023-01-29T14:10:37.796Z,26.42
2023-01-29T14:13:04.082Z,24.20
2023-01-29T14:15:32.520Z,26.75
2023-01-29T14:18:18.055Z,28.77
2023-01-29T14:20:47.741Z,25.08
2023-01-29T14:23:57.604Z,32.17
2023-01-29T14:26:30.189Z,22.48
2023-01-29T14:28:59.649Z,27.02
2023-01-29T14:31:37.468Z,27.67
2023-01-29T14:34:13.945Z,26.23
2023-01-29T14:36:45.555Z,29.77
2023-01-29T14:39:48.758Z,33.28
2023-01-29T14:42:26.836Z,28.70
2023-01-29T14:45:22.722Z,27.58
2023-01-29T14:47:49.186Z,27.73
2023-01-29T14:50:18.872Z,17.77
2023-01-29T14:52:47.935Z,29.52
2023-01-29T14:55:31.133Z,27.20
2023-01-29T14:57:59.006Z,25.15
2023-01-29T15:00:33.213Z,19.17
2023-01-29T15:03:02.565Z,25.63
2023-01-29T15:05:32.768Z,29.73
2023-01-29T15:08:15.820Z,26.15
2023-01-29T15:10:45.597Z,28.40
2023-01-29T15:13:37.941Z,24.92
2023-01-29T15:16:25.622Z,26.02
2023-01-29T15:18:57.178Z,25.08
2023-01-29T15:21:23.599Z,25.83
2023-01-29T15:24:04.469Z,28.27
2023-01-29T15:26:31.186Z,27.25
2023-01-29T15:29:04.642Z,27.77
2023-01-29T15:31:32.093Z,25.00
2023-01-29T15:34:04.506Z,25.25
2023-01-29T15:36:32.304Z,27.17
2023-01-29T15:39:21.565Z,33.53
2023-01-29T15:41:48.669Z,27.52
2023-01-29T15:44:18.177Z,28.13
2023-01-29T15:46:51.144Z,28.98
2023-01-29T15:49:30.898Z,26.98
2023-01-29T15:52:00.301Z,21.20
2023-01-29T15:54:31.084Z,23.27
2023-01-29T15:59:29.194Z,21.33
2023-01-29T16:01:55.717Z,24.08
2023-01-29T16:04:26.796Z,26.38
2023-01-29T16:06:54.446Z,25.77
2023-01-29T16:09:24.837Z,21.35
2023-01-29T16:11:53.037Z,26.40
2023-01-29T16:14:24.339Z,26.42
2023-01-29T16:16:51.457Z,24.35
2023-01-29T16:19:29.754Z,19.35
2023-01-29T16:22:02.397Z,26.65
2023-01-29T16:24:31.223Z,20.73
2023-01-29T16:27:00.680Z,24.50
2023-01-29T16:29:32.557Z,24.67
2023-01-29T16:32:01.277Z,23.73
2023-01-29T16:34:36.336Z,25.63
2023-01-29T16:37:06.542Z,23.42
2023-01-29T16:39:36.633Z,26.55
2023-01-29T16:42:12.251Z,29.50
2023-01-29T16:44:46.899Z,25.23
2023-01-29T16:47:20.415Z,32.10
2023-01-29T16:49:50.897Z,31.90
2023-01-29T16:52:35.452Z,31.45
2023-01-29T16:55:19.839Z,30.35
2023-01-29T16:57:52.507Z,33.50
2023-01-29T17:00:28.274Z,30.58
2023-01-29T17:03:00.345Z,32.38
2023-01-29T17:05:31.487Z,31.98
2023-01-29T17:08:00.247Z,35.80
2023-01-29T17:10:29.044Z,23.67
2023-01-29T17:13:03.237Z,28.98
2023-01-29T17:15:33.561Z,33.80
2023-01-29T17:18:00.234Z,27.95
2023-01-29T17:20:27.786Z,31.17
2023-01-29T17:22:54.595Z,31.10
2023-01-29T17:25:21.347Z,22.17
2023-01-29T17:27:47.951Z,32.70
2023-01-29T17:30:16.709Z,28.80
2023-01-29T17:32:44.970Z,30.65
2023-01-29T17:35:16.649Z,33.53
2023-01-29T17:37:44.894Z,30.65
2023-01-29T17:40:50.128Z,34.40
2023-01-29T17:43:16.685Z,32.42
2023-01-29T17:45:43.339Z,30.42
2023-01-29T17:48:27.734Z,30.50
2023-01-29T17:50:57.028Z,26.73
2023-01-29T17:53:26.555Z,31.80
2023-01-29T17:55:57.009Z,32.85
2023-01-29T17:58:28.559Z,27.83
2023-01-29T18:00:56.531Z,26.50
2023-01-29T18:03:23.913Z,31.08
2023-01-29T18:05:51.995Z,31.35
2023-01-29T18:08:31.878Z,27.40
2023-01-29T18:10:58.725Z,32.58
2023-01-29T18:13:27.501Z,28.17
2023-01-29T18:15:54.214Z,28.05
2023-01-29T18:18:25.543Z,33.75
2023-01-29T18:20:51.980Z,30.77
2023-01-29T18:23:18.503Z,28.05
2023-01-29T18:25:45.947Z,34.83
2023-01-29T18:28:16.800Z,34.08
2023-01-29T18:30:47.612Z,31.38
2023-01-29T18:33:16.149Z,32.53
2023-01-29T18:35:48.439Z,36.55
2023-01-29T18:38:14.889Z,28.33
2023-01-29T18:40:41.451Z,37.25
2023-01-29T18:43:08.000Z,32.25
2023-01-29T18:45:34.591Z,32.90
2023-01-29T18:48:01.321Z,35.03
2023-01-29T18:50:27.966Z,32.10
2023-01-29T18:52:55.654Z,33.17
2023-01-29T18:55:22.396Z,35.70
2023-01-29T18:58:25.118Z,33.08
2023-01-29T19:00:42.072Z,30.23
2023-01-29T19:03:08.540Z,30.77
2023-01-29T19:05:34.938Z,24.77
2023-01-29T19:08:01.256Z,30.42
2023-01-29T19:10:27.643Z,28.98
2023-01-29T19:12:53.969Z,31.27
2023-01-29T19:15:20.331Z,28.05
2023-01-29T19:17:46.675Z,31.77
2023-01-29T19:20:13.145Z,32.40
2023-01-29T19:22:39.938Z,35.35
2023-01-29T19:25:06.867Z,30.17
2023-01-29T19:27:33.358Z,31.50
2023-01-29T19:29:59.885Z,29.83
2023-01-29T19:32:26.766Z,26.25
2023-01-29T19:34:53.092Z,26.60
2023-01-29T19:37:19.397Z,34.20
2023-01-29T19:39:46.041Z,24.90
2023-01-29T19:42:12.432Z,30.55
2023-01-29T19:44:38.791Z,30.88
2023-01-29T19:47:05.387Z,21.15
2023-01-29T19:49:31.693Z,35.03
2023-01-29T19:51:58.015Z,34.13
2023-01-29T19:54:24.983Z,30.30
2023-01-29T19:56:51.361Z,30.45
2023-01-29T19:59:17.728Z,31.17
2023-01-29T20:01:44.325Z,38.22
2023-01-29T20:04:10.985Z,34.28
2023-01-29T20:06:37.488Z,37.30
2023-01-29T20:09:04.283Z,29.98
2023-01-29T20:11:31.433Z,31.08
2023-01-29T20:13:58.233Z,34.65
2023-01-29T20:16:25.697Z,24.38
2023-01-29T20:18:52.509Z,29.83
2023-01-29T20:21:20.639Z,29.48
2023-01-29T20:23:50.069Z,31.35
2023-01-29T20:26:17.442Z,32.83
2023-01-29T20:28:46.181Z,36.63
2023-01-29T20:31:12.685Z,35.47
2023-01-29T20:33:39.812Z,29.25
2023-01-29T20:36:08.588Z,34.65
2023-01-29T20:38:34.953Z,37.85
2023-01-29T20:41:14.591Z,29.38
2023-01-29T20:43:42.238Z,24.85
2023-01-29T20:46:09.052Z,34.80
2023-01-29T20:48:36.390Z,32.13
2023-01-29T20:51:06.488Z,25.10
2023-01-29T20:53:32.815Z,31.73
2023-01-29T20:55:59.240Z,35.00
2023-01-29T20:58:25.871Z,34.13
2023-01-29T21:00:52.363Z,34.33
2023-01-29T21:03:19.921Z,27.92
2023-01-29T21:05:46.267Z,36.42
2023-01-29T21:08:12.642Z,33.22
2023-01-29T21:10:38.962Z,33.30
2023-01-29T21:13:05.338Z,35.33
2023-01-29T21:15:31.690Z,37.25
2023-01-29T21:17:58.058Z,33.92
2023-01-29T21:20:24.383Z,38.53
2023-01-29T21:22:50.665Z,34.38
2023-01-29T21:25:17.049Z,36.70
2023-01-29T21:27:43.381Z,37.38
2023-01-29T21:30:12.416Z,31.27
2023-01-29T21:32:38.862Z,34.33
2023-01-29T21:35:05.765Z,29.25
2023-01-29T21:37:32.164Z,36.95
2023-01-29T21:39:58.517Z,36.90
2023-01-29T21:42:24.869Z,35.67
2023-01-29T21:44:51.238Z,28.95
2023-01-29T21:47:17.769Z,36.13
2023-01-29T21:49:44.729Z,37.55
2023-01-29T21:52:12.770Z,35.40
2023-01-29T21:54:39.711Z,47.45
2023-01-29T21:57:11.009Z,42.97
2023-01-29T21:59:37.381Z,37.75
2023-01-29T22:02:03.984Z,36.35
2023-01-29T22:04:30.418Z,37.28
2023-01-29T22:06:56.783Z,35.10
2023-01-29T22:09:23.173Z,42.25
2023-01-29T22:11:49.796Z,39.28
2023-01-29T22:14:16.153Z,37.40
2023-01-29T22:16:42.603Z,36.80
2023-01-29T22:19:08.941Z,37.30
2023-01-29T22:21:36.005Z,37.78
2023-01-29T22:24:02.453Z,32.47
2023-01-29T22:26:28.815Z,36.20
2023-01-29T22:28:55.378Z,37.42
2023-01-29T22:31:21.763Z,36.75
2023-01-29T22:33:48.207Z,39.22
2023-01-29T22:36:14.666Z,37.47
2023-01-29T22:38:44.204Z,28.50
2023-01-29T22:41:10.951Z,36.95
2023-01-29T22:43:37.381Z,40.17
2023-01-29T22:46:11.360Z,37.55
2023-01-29T22:48:37.683Z,41.90
2023-01-29T22:51:04.389Z,39.60
2023-01-29T22:53:30.691Z,26.73
2023-01-29T22:55:57.454Z,30.85
2023-01-29T22:58:23.743Z,40.55
2023-01-29T23:00:50.721Z,40.85
2023-01-29T23:03:17.370Z,39.08
2023-01-29T23:05:43.700Z,34.70
2023-01-29T23:08:10.049Z,32.25
2023-01-29T23:10:36.403Z,35.50
2023-01-29T23:13:02.744Z,40.83
2023-01-29T23:15:29.128Z,33.13
2023-01-29T23:17:55.548Z,32.83
2023-01-29T23:20:21.850Z,38.17
2023-01-29T23:22:49.263Z,35.75
2023-01-29T23:25:16.438Z,34.95
2023-01-29T23:27:42.792Z,37.78
2023-01-29T23:30:09.658Z,38.63
2023-01-29T23:32:36.362Z,30.75
2023-01-29T23:35:02.712Z,36.00
2023-01-29T23:37:29.063Z,32.40
2023-01-29T23:39:55.422Z,35.15
2023-01-29T23:42:22.972Z,37.33
2023-01-29T23:44:49.346Z,37.08
2023-01-29T23:47:15.747Z,36.30
2023-01-29T23:49:42.183Z,30.20
2023-01-29T23:52:08.545Z,34.08
2023-01-29T23:54:34.905Z,34.03
2023-01-29T23:57:01.234Z,33.65
2023-01-29T23:59:27.734Z,35.65
